sensor_id;sensor_type;location;lat;lon;timestamp;temperature;humidity
7894;DHT22;51343;51.396;6.656;2023-04-15T00:00:33;5.60;99.90
7894;DHT22;51343;51.396;6.656;2023-04-15T00:02:59;5.60;99.90
7894;DHT22;51343;51.396;6.656;2023-04-15T00:05:28;5.60;99.90
7894;DHT22;51343;51.396;6.656;2023-04-15T00:07:55;5.50;99.90
7894;DHT22;51343;51.396;6.656;2023-04-15T00:10:24;5.40;99.90
7894;DHT22;51343;51.396;6.656;2023-04-15T00:12:50;5.40;99.90
7894;DHT22;51343;51.396;6.656;2023-04-15T00:15:17;5.40;99.90
7894;DHT22;51343;51.396;6.656;2023-04-15T00:17:45;5.40;99.90
7894;DHT22;51343;51.396;6.656;2023-04-15T00:20:12;5.40;99.90
7894;DHT22;51343;51.396;6.656;2023-04-15T00:22:38;5.30;99.90
7894;DHT22;51343;51.396;6.656;2023-04-15T00:25:06;5.30;99.90
7894;DHT22;51343;51.396;6.656;2023-04-15T00:27:33;5.30;99.90
7894;DHT22;51343;51.396;6.656;2023-04-15T00:30:00;5.30;99.90
7894;DHT22;51343;51.396;6.656;2023-04-15T00:32:28;5.30;99.90
7894;DHT22;51343;51.396;6.656;2023-04-15T00:34:56;5.20;99.90
7894;DHT22;51343;51.396;6.656;2023-04-15T00:37:23;5.20;99.90
7894;DHT22;51343;51.396;6.656;2023-04-15T00:39:50;5.20;99.90
7894;DHT22;51343;51.396;6.656;2023-04-15T00:42:16;5.20;99.90
7894;DHT22;51343;51.396;6.656;2023-04-15T00:44:43;5.10;99.90
7894;DHT22;51343;51.396;6.656;2023-04-15T00:47:10;5.20;99.90
7894;DHT22;51343;51.396;6.656;2023-04-15T00:49:37;5.10;99.90
7894;DHT22;51343;51.396;6.656;2023-04-15T00:52:05;5.10;99.90
7894;DHT22;51343;51.396;6.656;2023-04-15T00:54:31;5.10;99.90
7894;DHT22;51343;51.396;6.656;2023-04-15T00:56:58;5.10;99.90
7894;DHT22;51343;51.396;6.656;2023-04-15T00:59:25;5.00;99.90
7894;DHT22;51343;51.396;6.656;2023-04-15T01:01:52;5.00;99.90
7894;DHT22;51343;51.396;6.656;2023-04-15T01:04:19;5.00;99.90
7894;DHT22;51343;51.396;6.656;2023-04-15T01:06:45;5.00;99.90
7894;DHT22;51343;51.396;6.656;2023-04-15T01:09:13;5.00;99.90
7894;DHT22;51343;51.396;6.656;2023-04-15T01:11:40;4.90;99.90
7894;DHT22;51343;51.396;6.656;2023-04-15T01:14:07;4.90;99.90
7894;DHT22;51343;51.396;6.656;2023-04-15T01:16:34;4.90;99.90
7894;DHT22;51343;51.396;6.656;2023-04-15T01:19:04;4.90;99.90
7894;DHT22;51343;51.396;6.656;2023-04-15T01:21:31;4.80;99.90
7894;DHT22;51343;51.396;6.656;2023-04-15T01:23:58;4.80;99.90
7894;DHT22;51343;51.396;6.656;2023-04-15T01:26:27;4.80;99.90
7894;DHT22;51343;51.396;6.656;2023-04-15T01:28:55;4.70;99.90
7894;DHT22;51343;51.396;6.656;2023-04-15T01:31:21;4.70;99.90
7894;DHT22;51343;51.396;6.656;2023-04-15T01:33:48;4.70;99.90
7894;DHT22;51343;51.396;6.656;2023-04-15T01:36:15;4.70;99.90
7894;DHT22;51343;51.396;6.656;2023-04-15T01:38:41;4.60;99.90
7894;DHT22;51343;51.396;6.656;2023-04-15T01:41:08;4.60;99.90
7894;DHT22;51343;51.396;6.656;2023-04-15T01:43:36;4.60;99.90
7894;DHT22;51343;51.396;6.656;2023-04-15T01:46:03;4.60;99.90
7894;DHT22;51343;51.396;6.656;2023-04-15T01:48:30;4.60;99.90
7894;DHT22;51343;51.396;6.656;2023-04-15T01:50:57;4.50;99.90
7894;DHT22;51343;51.396;6.656;2023-04-15T01:53:24;4.50;99.90
7894;DHT22;51343;51.396;6.656;2023-04-15T01:55:51;4.50;99.90
7894;DHT22;51343;51.396;6.656;2023-04-15T01:58:18;4.50;99.90
7894;DHT22;51343;51.396;6.656;2023-04-15T02:00:46;4.50;99.90
7894;DHT22;51343;51.396;6.656;2023-04-15T02:03:13;4.50;99.90
7894;DHT22;51343;51.396;6.656;2023-04-15T02:05:39;4.40;99.90
7894;DHT22;51343;51.396;6.656;2023-04-15T02:08:06;4.50;99.90
7894;DHT22;51343;51.396;6.656;2023-04-15T02:10:33;4.40;99.90
7894;DHT22;51343;51.396;6.656;2023-04-15T02:12:59;4.40;99.90
7894;DHT22;51343;51.396;6.656;2023-04-15T02:15:26;4.40;99.90
7894;DHT22;51343;51.396;6.656;2023-04-15T02:17:54;4.40;99.90
7894;DHT22;51343;51.396;6.656;2023-04-15T02:20:21;4.40;99.90
7894;DHT22;51343;51.396;6.656;2023-04-15T02:22:48;4.40;99.90
7894;DHT22;51343;51.396;6.656;2023-04-15T02:25:15;4.50;99.90
7894;DHT22;51343;51.396;6.656;2023-04-15T02:27:42;4.50;99.90
7894;DHT22;51343;51.396;6.656;2023-04-15T02:30:09;4.50;99.90
7894;DHT22;51343;51.396;6.656;2023-04-15T02:32:35;4.50;99.90
7894;DHT22;51343;51.396;6.656;2023-04-15T02:35:04;4.60;99.90
7894;DHT22;51343;51.396;6.656;2023-04-15T02:37:32;4.60;99.90
7894;DHT22;51343;51.396;6.656;2023-04-15T02:40:01;4.60;99.90
7894;DHT22;51343;51.396;6.656;2023-04-15T02:42:29;4.60;99.90
7894;DHT22;51343;51.396;6.656;2023-04-15T02:44:56;4.60;99.90
7894;DHT22;51343;51.396;6.656;2023-04-15T02:47:22;4.60;99.90
7894;DHT22;51343;51.396;6.656;2023-04-15T02:49:49;4.60;99.90
7894;DHT22;51343;51.396;6.656;2023-04-15T02:52:17;4.50;99.90
7894;DHT22;51343;51.396;6.656;2023-04-15T02:54:44;4.50;99.90
7894;DHT22;51343;51.396;6.656;2023-04-15T02:57:10;4.50;99.90
7894;DHT22;51343;51.396;6.656;2023-04-15T02:59:37;4.50;99.90
7894;DHT22;51343;51.396;6.656;2023-04-15T03:02:04;4.40;99.90
7894;DHT22;51343;51.396;6.656;2023-04-15T03:04:32;4.40;99.90
7894;DHT22;51343;51.396;6.656;2023-04-15T03:06:58;4.30;99.90
7894;DHT22;51343;51.396;6.656;2023-04-15T03:09:26;4.30;99.90
7894;DHT22;51343;51.396;6.656;2023-04-15T03:11:53;4.30;99.90
7894;DHT22;51343;51.396;6.656;2023-04-15T03:14:21;4.20;99.90
7894;DHT22;51343;51.396;6.656;2023-04-15T03:16:47;4.20;99.90
7894;DHT22;51343;51.396;6.656;2023-04-15T03:19:16;4.20;99.90
7894;DHT22;51343;51.396;6.656;2023-04-15T03:21:42;4.10;99.90
7894;DHT22;51343;51.396;6.656;2023-04-15T03:24:09;4.10;99.90
7894;DHT22;51343;51.396;6.656;2023-04-15T03:26:37;4.10;99.90
7894;DHT22;51343;51.396;6.656;2023-04-15T03:29:04;4.00;99.90
7894;DHT22;51343;51.396;6.656;2023-04-15T03:31:30;4.00;99.90
7894;DHT22;51343;51.396;6.656;2023-04-15T03:33:57;4.00;99.90
7894;DHT22;51343;51.396;6.656;2023-04-15T03:36:24;4.10;99.90
7894;DHT22;51343;51.396;6.656;2023-04-15T03:38:51;4.20;99.90
7894;DHT22;51343;51.396;6.656;2023-04-15T03:41:18;4.30;99.90
7894;DHT22;51343;51.396;6.656;2023-04-15T03:43:46;4.50;99.90
7894;DHT22;51343;51.396;6.656;2023-04-15T03:46:15;4.60;99.90
7894;DHT22;51343;51.396;6.656;2023-04-15T03:48:42;4.70;99.90
7894;DHT22;51343;51.396;6.656;2023-04-15T03:51:09;4.80;99.90
7894;DHT22;51343;51.396;6.656;2023-04-15T03:53:36;4.80;99.90
7894;DHT22;51343;51.396;6.656;2023-04-15T03:56:02;4.90;99.90
7894;DHT22;51343;51.396;6.656;2023-04-15T03:58:29;5.00;99.90
7894;DHT22;51343;51.396;6.656;2023-04-15T04:00:57;5.10;99.90
7894;DHT22;51343;51.396;6.656;2023-04-15T04:03:24;5.20;99.90
7894;DHT22;51343;51.396;6.656;2023-04-15T04:05:51;5.30;99.90
7894;DHT22;51343;51.396;6.656;2023-04-15T04:08:18;5.50;99.90
7894;DHT22;51343;51.396;6.656;2023-04-15T04:10:46;5.50;99.90
7894;DHT22;51343;51.396;6.656;2023-04-15T04:13:12;5.60;99.90
7894;DHT22;51343;51.396;6.656;2023-04-15T04:15:39;5.60;99.90
7894;DHT22;51343;51.396;6.656;2023-04-15T04:18:07;5.60;99.90
7894;DHT22;51343;51.396;6.656;2023-04-15T04:20:34;5.70;99.90
7894;DHT22;51343;51.396;6.656;2023-04-15T04:23:01;5.80;99.90
7894;DHT22;51343;51.396;6.656;2023-04-15T04:25:27;5.80;99.90
7894;DHT22;51343;51.396;6.656;2023-04-15T04:27:54;5.80;99.90
7894;DHT22;51343;51.396;6.656;2023-04-15T04:30:20;5.80;99.90
7894;DHT22;51343;51.396;6.656;2023-04-15T04:32:48;5.90;99.90
7894;DHT22;51343;51.396;6.656;2023-04-15T04:35:16;5.90;99.90
7894;DHT22;51343;51.396;6.656;2023-04-15T04:37:43;5.90;99.90
7894;DHT22;51343;51.396;6.656;2023-04-15T04:40:10;5.90;99.90
7894;DHT22;51343;51.396;6.656;2023-04-15T04:42:36;5.90;99.90
7894;DHT22;51343;51.396;6.656;2023-04-15T04:45:03;5.90;99.90
7894;DHT22;51343;51.396;6.656;2023-04-15T04:47:30;5.90;99.90
7894;DHT22;51343;51.396;6.656;2023-04-15T04:49:57;6.00;99.90
7894;DHT22;51343;51.396;6.656;2023-04-15T04:52:25;6.00;99.90
7894;DHT22;51343;51.396;6.656;2023-04-15T04:54:51;6.10;99.90
7894;DHT22;51343;51.396;6.656;2023-04-15T04:57:19;6.10;99.90
7894;DHT22;51343;51.396;6.656;2023-04-15T04:59:46;6.20;99.90
7894;DHT22;51343;51.396;6.656;2023-04-15T05:02:12;6.20;99.90
7894;DHT22;51343;51.396;6.656;2023-04-15T05:04:39;6.20;99.90
7894;DHT22;51343;51.396;6.656;2023-04-15T05:07:06;6.20;99.90
7894;DHT22;51343;51.396;6.656;2023-04-15T05:09:34;6.20;99.90
7894;DHT22;51343;51.396;6.656;2023-04-15T05:12:01;6.20;99.90
7894;DHT22;51343;51.396;6.656;2023-04-15T05:14:27;6.20;99.90
7894;DHT22;51343;51.396;6.656;2023-04-15T05:16:54;6.20;99.90
7894;DHT22;51343;51.396;6.656;2023-04-15T05:19:21;6.20;99.90
7894;DHT22;51343;51.396;6.656;2023-04-15T05:21:48;6.20;99.90
7894;DHT22;51343;51.396;6.656;2023-04-15T05:24:14;6.20;99.90
7894;DHT22;51343;51.396;6.656;2023-04-15T05:26:42;6.10;99.90
7894;DHT22;51343;51.396;6.656;2023-04-15T05:29:09;6.20;99.90
7894;DHT22;51343;51.396;6.656;2023-04-15T05:31:36;6.20;99.90
7894;DHT22;51343;51.396;6.656;2023-04-15T05:34:02;6.10;99.90
7894;DHT22;51343;51.396;6.656;2023-04-15T05:36:29;6.20;99.90
7894;DHT22;51343;51.396;6.656;2023-04-15T05:38:57;6.30;99.90
7894;DHT22;51343;51.396;6.656;2023-04-15T05:41:24;6.30;99.90
7894;DHT22;51343;51.396;6.656;2023-04-15T05:43:53;6.30;99.90
7894;DHT22;51343;51.396;6.656;2023-04-15T05:46:20;6.30;99.90
7894;DHT22;51343;51.396;6.656;2023-04-15T05:48:46;6.30;99.90
7894;DHT22;51343;51.396;6.656;2023-04-15T05:51:13;6.40;99.90
7894;DHT22;51343;51.396;6.656;2023-04-15T05:53:40;6.30;99.90
7894;DHT22;51343;51.396;6.656;2023-04-15T05:56:07;6.40;99.90
7894;DHT22;51343;51.396;6.656;2023-04-15T05:58:34;6.50;99.90
7894;DHT22;51343;51.396;6.656;2023-04-15T06:01:02;6.60;99.90
7894;DHT22;51343;51.396;6.656;2023-04-15T06:03:29;6.70;99.90
7894;DHT22;51343;51.396;6.656;2023-04-15T06:05:56;6.80;99.90
7894;DHT22;51343;51.396;6.656;2023-04-15T06:08:23;6.80;99.90
7894;DHT22;51343;51.396;6.656;2023-04-15T06:10:49;6.90;99.90
7894;DHT22;51343;51.396;6.656;2023-04-15T06:13:16;7.00;99.90
7894;DHT22;51343;51.396;6.656;2023-04-15T06:15:43;7.00;99.90
7894;DHT22;51343;51.396;6.656;2023-04-15T06:18:11;7.10;99.90
7894;DHT22;51343;51.396;6.656;2023-04-15T06:20:37;7.20;99.90
7894;DHT22;51343;51.396;6.656;2023-04-15T06:23:04;7.30;99.90
7894;DHT22;51343;51.396;6.656;2023-04-15T06:25:31;7.30;99.90
7894;DHT22;51343;51.396;6.656;2023-04-15T06:27:57;7.40;99.90
7894;DHT22;51343;51.396;6.656;2023-04-15T06:30:24;7.40;99.90
7894;DHT22;51343;51.396;6.656;2023-04-15T06:32:50;7.50;99.90
7894;DHT22;51343;51.396;6.656;2023-04-15T06:35:18;7.50;99.90
7894;DHT22;51343;51.396;6.656;2023-04-15T06:37:47;7.60;99.90
7894;DHT22;51343;51.396;6.656;2023-04-15T06:40:13;7.70;99.90
7894;DHT22;51343;51.396;6.656;2023-04-15T06:42:40;7.80;99.90
7894;DHT22;51343;51.396;6.656;2023-04-15T06:45:07;7.80;99.90
7894;DHT22;51343;51.396;6.656;2023-04-15T06:47:34;7.90;99.90
7894;DHT22;51343;51.396;6.656;2023-04-15T06:50:01;8.10;99.90
7894;DHT22;51343;51.396;6.656;2023-04-15T06:52:30;8.20;99.90
7894;DHT22;51343;51.396;6.656;2023-04-15T06:54:57;8.30;99.90
7894;DHT22;51343;51.396;6.656;2023-04-15T06:57:25;8.40;99.90
7894;DHT22;51343;51.396;6.656;2023-04-15T06:59:53;8.60;99.90
7894;DHT22;51343;51.396;6.656;2023-04-15T07:02:19;8.60;99.90
7894;DHT22;51343;51.396;6.656;2023-04-15T07:04:46;8.80;99.90
7894;DHT22;51343;51.396;6.656;2023-04-15T07:07:13;8.90;99.90
7894;DHT22;51343;51.396;6.656;2023-04-15T07:09:42;9.00;99.90
7894;DHT22;51343;51.396;6.656;2023-04-15T07:12:09;9.00;99.90
7894;DHT22;51343;51.396;6.656;2023-04-15T07:14:35;9.10;99.90
7894;DHT22;51343;51.396;6.656;2023-04-15T07:17:02;9.20;99.90
7894;DHT22;51343;51.396;6.656;2023-04-15T07:19:29;9.40;99.90
7894;DHT22;51343;51.396;6.656;2023-04-15T07:21:55;9.50;99.90
7894;DHT22;51343;51.396;6.656;2023-04-15T07:24:22;9.60;99.90
7894;DHT22;51343;51.396;6.656;2023-04-15T07:26:52;9.60;99.90
7894;DHT22;51343;51.396;6.656;2023-04-15T07:29:20;9.70;99.90
7894;DHT22;51343;51.396;6.656;2023-04-15T07:31:47;9.90;99.90
7894;DHT22;51343;51.396;6.656;2023-04-15T07:34:13;9.90;99.90
7894;DHT22;51343;51.396;6.656;2023-04-15T07:36:40;10.00;99.90
7894;DHT22;51343;51.396;6.656;2023-04-15T07:39:07;10.10;99.90
7894;DHT22;51343;51.396;6.656;2023-04-15T07:41:34;10.10;99.90
7894;DHT22;51343;51.396;6.656;2023-04-15T07:44:02;10.20;99.90
7894;DHT22;51343;51.396;6.656;2023-04-15T07:46:29;10.30;99.90
7894;DHT22;51343;51.396;6.656;2023-04-15T07:48:56;10.40;99.90
7894;DHT22;51343;51.396;6.656;2023-04-15T07:51:24;10.50;99.90
7894;DHT22;51343;51.396;6.656;2023-04-15T07:53:50;10.60;99.90
7894;DHT22;51343;51.396;6.656;2023-04-15T07:56:17;10.70;99.90
7894;DHT22;51343;51.396;6.656;2023-04-15T07:58:44;10.70;99.90
7894;DHT22;51343;51.396;6.656;2023-04-15T08:01:12;10.70;99.90
7894;DHT22;51343;51.396;6.656;2023-04-15T08:03:39;10.70;99.90
7894;DHT22;51343;51.396;6.656;2023-04-15T08:06:13;10.60;99.70
7894;DHT22;51343;51.396;6.656;2023-04-15T08:08:40;10.70;99.90
7894;DHT22;51343;51.396;6.656;2023-04-15T08:11:07;10.80;99.90
7894;DHT22;51343;51.396;6.656;2023-04-15T08:13:34;10.80;97.10
7894;DHT22;51343;51.396;6.656;2023-04-15T08:16:17;10.80;99.50
7894;DHT22;51343;51.396;6.656;2023-04-15T08:18:44;10.90;96.00
7894;DHT22;51343;51.396;6.656;2023-04-15T08:21:11;10.90;96.80
7894;DHT22;51343;51.396;6.656;2023-04-15T08:23:38;11.00;95.80
7894;DHT22;51343;51.396;6.656;2023-04-15T08:26:05;11.20;93.50
7894;DHT22;51343;51.396;6.656;2023-04-15T08:28:32;11.30;93.90
7894;DHT22;51343;51.396;6.656;2023-04-15T08:30:59;11.50;93.20
7894;DHT22;51343;51.396;6.656;2023-04-15T08:33:28;11.60;93.20
7894;DHT22;51343;51.396;6.656;2023-04-15T08:35:55;11.70;90.80
7894;DHT22;51343;51.396;6.656;2023-04-15T08:38:21;11.90;85.50
7894;DHT22;51343;51.396;6.656;2023-04-15T08:40:48;12.10;85.90
7894;DHT22;51343;51.396;6.656;2023-04-15T08:43:17;12.10;75.50
7894;DHT22;51343;51.396;6.656;2023-04-15T08:45:44;12.00;68.40
7894;DHT22;51343;51.396;6.656;2023-04-15T08:48:14;12.00;68.50
7894;DHT22;51343;51.396;6.656;2023-04-15T08:50:43;12.00;70.10
7894;DHT22;51343;51.396;6.656;2023-04-15T08:53:10;12.00;75.40
7894;DHT22;51343;51.396;6.656;2023-04-15T08:55:39;12.00;74.70
7894;DHT22;51343;51.396;6.656;2023-04-15T08:58:07;11.90;75.50
7894;DHT22;51343;51.396;6.656;2023-04-15T09:00:34;11.70;77.70
7894;DHT22;51343;51.396;6.656;2023-04-15T09:03:03;11.70;75.30
7894;DHT22;51343;51.396;6.656;2023-04-15T09:05:31;11.60;73.40
7894;DHT22;51343;51.396;6.656;2023-04-15T09:07:59;11.60;73.70
7894;DHT22;51343;51.396;6.656;2023-04-15T09:10:26;11.60;70.30
7894;DHT22;51343;51.396;6.656;2023-04-15T09:12:53;11.60;75.40
7894;DHT22;51343;51.396;6.656;2023-04-15T09:15:20;11.70;76.50
7894;DHT22;51343;51.396;6.656;2023-04-15T09:17:48;11.70;77.40
7894;DHT22;51343;51.396;6.656;2023-04-15T09:20:15;11.80;82.80
7894;DHT22;51343;51.396;6.656;2023-04-15T09:22:43;11.90;86.30
7894;DHT22;51343;51.396;6.656;2023-04-15T09:25:28;12.10;75.80
7894;DHT22;51343;51.396;6.656;2023-04-15T09:27:55;12.10;74.50
7894;DHT22;51343;51.396;6.656;2023-04-15T09:30:22;12.10;72.70
7894;DHT22;51343;51.396;6.656;2023-04-15T09:32:49;12.10;77.90
7894;DHT22;51343;51.396;6.656;2023-04-15T09:35:16;12.20;72.80
7894;DHT22;51343;51.396;6.656;2023-04-15T09:37:43;12.30;69.80
7894;DHT22;51343;51.396;6.656;2023-04-15T09:40:10;12.40;77.60
7894;DHT22;51343;51.396;6.656;2023-04-15T09:42:41;12.60;75.40
7894;DHT22;51343;51.396;6.656;2023-04-15T09:45:19;12.80;74.50
7894;DHT22;51343;51.396;6.656;2023-04-15T09:47:46;12.70;66.60
7894;DHT22;51343;51.396;6.656;2023-04-15T09:50:13;12.50;70.30
7894;DHT22;51343;51.396;6.656;2023-04-15T09:52:40;12.50;75.30
7894;DHT22;51343;51.396;6.656;2023-04-15T09:55:07;12.80;75.00
7894;DHT22;51343;51.396;6.656;2023-04-15T09:57:34;13.00;65.80
7894;DHT22;51343;51.396;6.656;2023-04-15T10:00:04;13.20;70.30
7894;DHT22;51343;51.396;6.656;2023-04-15T10:02:30;13.30;70.00
7894;DHT22;51343;51.396;6.656;2023-04-15T10:04:57;13.40;67.60
7894;DHT22;51343;51.396;6.656;2023-04-15T10:07:25;13.40;61.40
7894;DHT22;51343;51.396;6.656;2023-04-15T10:09:51;13.20;62.10
7894;DHT22;51343;51.396;6.656;2023-04-15T10:12:18;12.90;63.70
7894;DHT22;51343;51.396;6.656;2023-04-15T10:14:47;12.80;69.30
7894;DHT22;51343;51.396;6.656;2023-04-15T10:17:16;12.80;70.40
7894;DHT22;51343;51.396;6.656;2023-04-15T10:19:45;12.90;74.90
7894;DHT22;51343;51.396;6.656;2023-04-15T10:22:12;13.00;68.20
7894;DHT22;51343;51.396;6.656;2023-04-15T10:24:39;13.00;64.60
7894;DHT22;51343;51.396;6.656;2023-04-15T10:27:06;13.10;62.10
7894;DHT22;51343;51.396;6.656;2023-04-15T10:29:34;13.40;67.50
7894;DHT22;51343;51.396;6.656;2023-04-15T10:32:00;13.70;58.90
7894;DHT22;51343;51.396;6.656;2023-04-15T10:34:29;14.00;63.20
7894;DHT22;51343;51.396;6.656;2023-04-15T10:36:56;14.50;52.00
7894;DHT22;51343;51.396;6.656;2023-04-15T10:42:09;14.10;46.20
7894;DHT22;51343;51.396;6.656;2023-04-15T10:44:36;14.10;50.20
7894;DHT22;51343;51.396;6.656;2023-04-15T10:47:05;14.20;53.50
7894;DHT22;51343;51.396;6.656;2023-04-15T10:49:33;14.20;44.40
7894;DHT22;51343;51.396;6.656;2023-04-15T10:52:00;14.40;45.90
7894;DHT22;51343;51.396;6.656;2023-04-15T10:54:30;14.60;39.20
7894;DHT22;51343;51.396;6.656;2023-04-15T10:57:06;14.70;42.00
7894;DHT22;51343;51.396;6.656;2023-04-15T10:59:35;14.60;36.70
7894;DHT22;51343;51.396;6.656;2023-04-15T11:02:02;14.40;35.10
7894;DHT22;51343;51.396;6.656;2023-04-15T11:07:16;13.80;41.50
7894;DHT22;51343;51.396;6.656;2023-04-15T11:09:58;13.60;48.60
7894;DHT22;51343;51.396;6.656;2023-04-15T11:12:32;13.50;54.10
7894;DHT22;51343;51.396;6.656;2023-04-15T11:14:59;13.40;57.20
7894;DHT22;51343;51.396;6.656;2023-04-15T11:17:46;13.10;62.20
7894;DHT22;51343;51.396;6.656;2023-04-15T11:20:13;13.00;59.20
7894;DHT22;51343;51.396;6.656;2023-04-15T11:22:47;13.00;70.60
7894;DHT22;51343;51.396;6.656;2023-04-15T11:25:21;13.00;69.00
7894;DHT22;51343;51.396;6.656;2023-04-15T11:27:47;13.00;62.90
7894;DHT22;51343;51.396;6.656;2023-04-15T11:30:18;13.00;66.00
7894;DHT22;51343;51.396;6.656;2023-04-15T11:32:46;13.00;65.90
7894;DHT22;51343;51.396;6.656;2023-04-15T11:35:13;13.00;65.50
7894;DHT22;51343;51.396;6.656;2023-04-15T11:37:40;13.00;67.20
7894;DHT22;51343;51.396;6.656;2023-04-15T11:40:09;13.30;71.60
7894;DHT22;51343;51.396;6.656;2023-04-15T11:42:35;13.40;61.60
7894;DHT22;51343;51.396;6.656;2023-04-15T11:45:05;13.60;54.30
7894;DHT22;51343;51.396;6.656;2023-04-15T11:47:33;13.50;55.00
7894;DHT22;51343;51.396;6.656;2023-04-15T11:50:12;13.40;64.10
7894;DHT22;51343;51.396;6.656;2023-04-15T11:52:39;13.30;62.10
7894;DHT22;51343;51.396;6.656;2023-04-15T11:55:06;13.20;58.60
7894;DHT22;51343;51.396;6.656;2023-04-15T11:57:35;13.00;63.30
7894;DHT22;51343;51.396;6.656;2023-04-15T12:00:02;12.80;66.80
7894;DHT22;51343;51.396;6.656;2023-04-15T12:02:30;12.70;69.80
7894;DHT22;51343;51.396;6.656;2023-04-15T12:05:01;12.60;72.00
7894;DHT22;51343;51.396;6.656;2023-04-15T12:07:29;12.40;70.40
7894;DHT22;51343;51.396;6.656;2023-04-15T12:09:56;12.20;77.20
7894;DHT22;51343;51.396;6.656;2023-04-15T12:12:25;12.20;80.80
7894;DHT22;51343;51.396;6.656;2023-04-15T12:14:53;12.00;81.00
7894;DHT22;51343;51.396;6.656;2023-04-15T12:17:22;12.00;85.30
7894;DHT22;51343;51.396;6.656;2023-04-15T12:19:54;11.70;87.70
7894;DHT22;51343;51.396;6.656;2023-04-15T12:22:21;11.90;90.80
7894;DHT22;51343;51.396;6.656;2023-04-15T12:24:53;11.90;89.30
7894;DHT22;51343;51.396;6.656;2023-04-15T12:27:24;12.00;90.20
7894;DHT22;51343;51.396;6.656;2023-04-15T12:29:56;12.10;86.40
7894;DHT22;51343;51.396;6.656;2023-04-15T12:32:33;12.10;87.40
7894;DHT22;51343;51.396;6.656;2023-04-15T12:35:00;12.20;85.00
7894;DHT22;51343;51.396;6.656;2023-04-15T12:37:27;12.10;85.60
7894;DHT22;51343;51.396;6.656;2023-04-15T12:39:53;12.20;86.50
7894;DHT22;51343;51.396;6.656;2023-04-15T12:42:20;12.30;86.30
7894;DHT22;51343;51.396;6.656;2023-04-15T12:44:47;12.40;86.60
7894;DHT22;51343;51.396;6.656;2023-04-15T12:47:13;12.30;85.50
7894;DHT22;51343;51.396;6.656;2023-04-15T12:49:41;12.40;89.30
7894;DHT22;51343;51.396;6.656;2023-04-15T12:52:08;12.30;84.40
7894;DHT22;51343;51.396;6.656;2023-04-15T12:54:35;12.20;88.60
7894;DHT22;51343;51.396;6.656;2023-04-15T12:57:02;12.10;88.70
7894;DHT22;51343;51.396;6.656;2023-04-15T12:59:29;11.90;91.90
7894;DHT22;51343;51.396;6.656;2023-04-15T13:01:55;11.80;93.50
7894;DHT22;51343;51.396;6.656;2023-04-15T13:04:22;11.70;93.20
7894;DHT22;51343;51.396;6.656;2023-04-15T13:06:51;11.70;94.00
7894;DHT22;51343;51.396;6.656;2023-04-15T13:09:17;11.80;95.40
7894;DHT22;51343;51.396;6.656;2023-04-15T13:11:44;11.80;94.10
7894;DHT22;51343;51.396;6.656;2023-04-15T13:14:11;11.80;94.40
7894;DHT22;51343;51.396;6.656;2023-04-15T13:16:37;12.00;96.40
7894;DHT22;51343;51.396;6.656;2023-04-15T13:19:04;12.00;96.70
7894;DHT22;51343;51.396;6.656;2023-04-15T13:21:31;11.90;94.70
7894;DHT22;51343;51.396;6.656;2023-04-15T13:24:00;11.80;93.60
7894;DHT22;51343;51.396;6.656;2023-04-15T13:26:27;11.90;92.10
7894;DHT22;51343;51.396;6.656;2023-04-15T13:28:54;11.90;92.20
7894;DHT22;51343;51.396;6.656;2023-04-15T13:31:21;12.10;92.40
7894;DHT22;51343;51.396;6.656;2023-04-15T13:33:47;12.00;92.20
7894;DHT22;51343;51.396;6.656;2023-04-15T13:36:14;12.10;90.20
7894;DHT22;51343;51.396;6.656;2023-04-15T13:38:41;12.10;90.60
7894;DHT22;51343;51.396;6.656;2023-04-15T13:41:08;12.10;90.40
7894;DHT22;51343;51.396;6.656;2023-04-15T13:43:35;12.10;92.70
7894;DHT22;51343;51.396;6.656;2023-04-15T13:46:02;12.20;91.80
7894;DHT22;51343;51.396;6.656;2023-04-15T13:48:28;12.10;91.10
7894;DHT22;51343;51.396;6.656;2023-04-15T13:50:55;12.20;91.70
7894;DHT22;51343;51.396;6.656;2023-04-15T13:53:22;12.30;91.50
7894;DHT22;51343;51.396;6.656;2023-04-15T13:55:49;12.10;91.70
7894;DHT22;51343;51.396;6.656;2023-04-15T13:58:17;12.00;91.90
7894;DHT22;51343;51.396;6.656;2023-04-15T14:00:43;12.00;91.90
7894;DHT22;51343;51.396;6.656;2023-04-15T14:03:10;11.80;93.10
7894;DHT22;51343;51.396;6.656;2023-04-15T14:05:37;11.70;95.10
7894;DHT22;51343;51.396;6.656;2023-04-15T14:08:03;11.50;95.60
7894;DHT22;51343;51.396;6.656;2023-04-15T14:10:30;11.40;96.70
7894;DHT22;51343;51.396;6.656;2023-04-15T14:12:57;11.30;98.60
7894;DHT22;51343;51.396;6.656;2023-04-15T14:15:25;11.30;98.80
7894;DHT22;51343;51.396;6.656;2023-04-15T14:17:52;11.20;99.50
7894;DHT22;51343;51.396;6.656;2023-04-15T14:20:18;11.10;98.50
7894;DHT22;51343;51.396;6.656;2023-04-15T14:22:45;11.10;99.60
7894;DHT22;51343;51.396;6.656;2023-04-15T14:25:11;11.30;99.90
7894;DHT22;51343;51.396;6.656;2023-04-15T14:27:38;11.40;98.40
7894;DHT22;51343;51.396;6.656;2023-04-15T14:30:05;11.50;98.00
7894;DHT22;51343;51.396;6.656;2023-04-15T14:32:33;11.60;97.50
7894;DHT22;51343;51.396;6.656;2023-04-15T14:35:00;11.40;96.10
7894;DHT22;51343;51.396;6.656;2023-04-15T14:37:28;11.30;97.30
7894;DHT22;51343;51.396;6.656;2023-04-15T14:39:55;11.20;99.90
7894;DHT22;51343;51.396;6.656;2023-04-15T14:42:21;11.20;99.90
7894;DHT22;51343;51.396;6.656;2023-04-15T14:44:48;11.30;99.90
7894;DHT22;51343;51.396;6.656;2023-04-15T14:47:15;11.20;99.90
7894;DHT22;51343;51.396;6.656;2023-04-15T14:49:43;11.20;99.90
7894;DHT22;51343;51.396;6.656;2023-04-15T14:52:10;11.10;99.90
7894;DHT22;51343;51.396;6.656;2023-04-15T14:54:37;11.10;99.90
7894;DHT22;51343;51.396;6.656;2023-04-15T14:57:04;11.10;99.90
7894;DHT22;51343;51.396;6.656;2023-04-15T14:59:30;11.10;99.90
7894;DHT22;51343;51.396;6.656;2023-04-15T15:01:57;11.20;99.90
7894;DHT22;51343;51.396;6.656;2023-04-15T15:04:23;11.30;99.90
7894;DHT22;51343;51.396;6.656;2023-04-15T15:06:52;11.30;99.90
7894;DHT22;51343;51.396;6.656;2023-04-15T15:09:18;11.40;99.90
7894;DHT22;51343;51.396;6.656;2023-04-15T15:11:48;11.50;99.90
7894;DHT22;51343;51.396;6.656;2023-04-15T15:14:14;11.60;99.90
7894;DHT22;51343;51.396;6.656;2023-04-15T15:16:41;11.60;99.90
7894;DHT22;51343;51.396;6.656;2023-04-15T15:19:08;11.40;99.90
7894;DHT22;51343;51.396;6.656;2023-04-15T15:21:34;11.40;99.90
7894;DHT22;51343;51.396;6.656;2023-04-15T15:24:03;11.30;99.90
7894;DHT22;51343;51.396;6.656;2023-04-15T15:26:30;11.30;99.90
7894;DHT22;51343;51.396;6.656;2023-04-15T15:28:57;11.10;99.90
7894;DHT22;51343;51.396;6.656;2023-04-15T15:31:23;11.10;99.90
7894;DHT22;51343;51.396;6.656;2023-04-15T15:33:50;11.00;99.90
7894;DHT22;51343;51.396;6.656;2023-04-15T15:36:17;11.00;99.90
7894;DHT22;51343;51.396;6.656;2023-04-15T15:38:43;11.00;99.90
7894;DHT22;51343;51.396;6.656;2023-04-15T15:41:12;11.00;99.90
7894;DHT22;51343;51.396;6.656;2023-04-15T15:43:39;11.00;99.90
7894;DHT22;51343;51.396;6.656;2023-04-15T15:46:06;11.00;99.90
7894;DHT22;51343;51.396;6.656;2023-04-15T15:48:33;10.90;99.90
7894;DHT22;51343;51.396;6.656;2023-04-15T15:50:59;10.90;99.90
7894;DHT22;51343;51.396;6.656;2023-04-15T15:53:28;10.90;99.90
7894;DHT22;51343;51.396;6.656;2023-04-15T15:55:55;10.90;99.90
7894;DHT22;51343;51.396;6.656;2023-04-15T15:58:23;10.90;99.90